createdAt,value
2018-09-25T00:00:34.123Z,99946.85
2018-09-25T00:01:42.095Z,99950.36
2018-09-25T00:02:49.847Z,99949.17
2018-09-25T00:03:57.583Z,99944.19
2018-09-25T00:05:05.331Z,99947.52
2018-09-25T00:06:13.505Z,99950.67
2018-09-25T00:07:21.534Z,99947.64
2018-09-25T00:08:29.464Z,99947.16
2018-09-25T00:09:37.113Z,99949.84
2018-09-25T00:10:44.822Z,99949.88
2018-09-25T00:11:53.592Z,99948.08
2018-09-25T00:13:01.391Z,99943.22
2018-09-25T00:14:09.147Z,99938.88
2018-09-25T00:15:17.255Z,99938.97
2018-09-25T00:16:25.152Z,99943.31
2018-09-25T00:17:34.190Z,99940.16
2018-09-25T00:18:42.544Z,99939.03
2018-09-25T00:19:50.153Z,99940.06
2018-09-25T00:20:57.917Z,99935.91
2018-09-25T00:22:05.724Z,99928.93
2018-09-25T00:23:13.469Z,99932.77
2018-09-25T00:24:21.717Z,99934.59
2018-09-25T00:25:29.363Z,99939.52
2018-09-25T00:26:37.083Z,99938.52
2018-09-25T00:27:44.707Z,99934.79
2018-09-25T00:28:53.316Z,99935.66
2018-09-25T00:30:01.340Z,99935.84
2018-09-25T00:31:09.040Z,99937.07
2018-09-25T00:32:16.668Z,99942.70
2018-09-25T00:33:24.547Z,99942.48
2018-09-25T00:34:32.746Z,99939.70
2018-09-25T00:35:40.606Z,99937.88
2018-09-25T00:36:48.755Z,99939.52
2018-09-25T00:37:56.510Z,99944.15
2018-09-25T00:39:04.325Z,99943.83
2018-09-25T00:40:11.936Z,99948.04
2018-09-25T00:41:19.559Z,99948.30
2018-09-25T00:42:27.352Z,99950.39
2018-09-25T00:43:35.409Z,99946.02
2018-09-25T00:44:43.659Z,99947.82
2018-09-25T00:45:51.862Z,99956.80
2018-09-25T00:46:59.647Z,99954.63
2018-09-25T00:48:07.444Z,99952.14
2018-09-25T00:49:15.224Z,99947.87
2018-09-25T00:50:23.637Z,99941.15
2018-09-25T00:51:31.534Z,99946.55
2018-09-25T00:52:40.143Z,99943.14
2018-09-25T00:53:47.936Z,99941.83
2018-09-25T00:54:55.720Z,99945.30
2018-09-25T00:56:03.493Z,99943.98
2018-09-25T00:57:11.527Z,99942.60
2018-09-25T00:58:19.320Z,99940.34
2018-09-25T00:59:27.575Z,99939.83
2018-09-25T01:00:35.344Z,99943.47
2018-09-25T01:01:43.087Z,99945.66
2018-09-25T01:02:51.946Z,99946.11
2018-09-25T01:03:59.655Z,99942.05
2018-09-25T01:05:07.591Z,99948.91
2018-09-25T01:06:15.323Z,99948.55
2018-09-25T01:07:23.128Z,99945.50
2018-09-25T01:08:30.871Z,99946.27
2018-09-25T01:09:39.316Z,99951.16
2018-09-25T01:10:46.919Z,99948.27
2018-09-25T01:11:54.766Z,99948.75
2018-09-25T01:13:02.518Z,99949.02
2018-09-25T01:14:10.403Z,99943.37
2018-09-25T01:15:18.099Z,99950.74
2018-09-25T01:16:26.353Z,99950.52
2018-09-25T01:17:33.977Z,99947.34
2018-09-25T01:18:41.617Z,99953.70
2018-09-25T01:19:49.250Z,99952.88
2018-09-25T01:20:56.991Z,99959.15
2018-09-25T01:22:04.743Z,99956.63
2018-09-25T01:23:12.995Z,99957.53
2018-09-25T01:24:20.725Z,99950.88
2018-09-25T01:25:29.077Z,99956.67
2018-09-25T01:26:37.023Z,99953.32
2018-09-25T01:27:45.044Z,99961.36
2018-09-25T01:28:52.904Z,99960.56
2018-09-25T01:30:00.885Z,99955.52
2018-09-25T01:31:09.074Z,99961.14
2018-09-25T01:32:16.791Z,99962.87
2018-09-25T01:33:24.675Z,99965.57
2018-09-25T01:34:32.423Z,99962.13
2018-09-25T01:35:41.239Z,99968.20
2018-09-25T01:36:49.016Z,99971.45
2018-09-25T01:37:56.764Z,99972.00
2018-09-25T01:39:04.547Z,99973.39
2018-09-25T01:40:12.293Z,99968.20
2018-09-25T01:41:20.334Z,99968.82
2018-09-25T01:42:28.785Z,99977.83
2018-09-25T01:43:36.401Z,99970.65
2018-09-25T01:44:44.044Z,99973.31
2018-09-25T01:45:51.799Z,99976.64
2018-09-25T01:46:59.578Z,99977.22
2018-09-25T01:48:07.318Z,99975.51
2018-09-25T01:49:15.621Z,99970.25
2018-09-25T01:50:23.361Z,99976.27
2018-09-25T01:51:31.112Z,99970.25
2018-09-25T01:52:38.864Z,99974.81
2018-09-25T01:53:46.616Z,99975.36
2018-09-25T01:54:54.384Z,99975.90
2018-09-25T01:56:02.596Z,99975.64
2018-09-25T01:57:11.037Z,99972.98
2018-09-25T01:58:18.857Z,99971.75
2018-09-25T01:59:26.485Z,99969.45
2018-09-25T02:00:34.270Z,99971.13
2018-09-25T02:01:42.047Z,99977.98
2018-09-25T02:02:50.307Z,99980.39
2018-09-25T02:03:58.059Z,99975.36
2018-09-25T02:05:06.440Z,99982.04
2018-09-25T02:06:14.069Z,99975.80
2018-09-25T02:07:21.672Z,99973.97
2018-09-25T02:08:29.502Z,99984.78
2018-09-25T02:09:37.458Z,99985.43
2018-09-25T02:10:45.211Z,99979.27
2018-09-25T02:11:52.963Z,99979.77
2018-09-25T02:13:00.719Z,99982.79
2018-09-25T02:14:08.489Z,99978.70
2018-09-25T02:15:16.238Z,99979.83
2018-09-25T02:16:24.403Z,99973.67
2018-09-25T02:17:32.155Z,99976.23
2018-09-25T02:18:39.924Z,99980.91
2018-09-25T02:19:47.655Z,99980.20
2018-09-25T02:20:55.395Z,99983.79
2018-09-25T02:22:03.558Z,99977.83
2018-09-25T02:23:11.509Z,99974.00
2018-09-25T02:24:19.225Z,99976.12
2018-09-25T02:25:27.051Z,99972.83
2018-09-25T02:26:34.840Z,99975.61
2018-09-25T02:28:48.797Z,99976.27
2018-09-25T02:29:57.061Z,99977.37
2018-09-25T02:31:04.839Z,99977.91
2018-09-25T02:32:12.672Z,99970.97
2018-09-25T02:33:20.457Z,99968.45
2018-09-25T02:34:28.150Z,99971.95
2018-09-25T02:35:36.170Z,99966.84
2018-09-25T02:36:44.394Z,99969.84
2018-09-25T02:37:53.070Z,99971.91
2018-09-25T02:39:01.030Z,99971.72
2018-09-25T02:40:08.729Z,99975.98
2018-09-25T02:41:16.491Z,99974.16
2018-09-25T02:42:24.403Z,99971.97
2018-09-25T02:43:32.447Z,99973.39
2018-09-25T02:44:40.066Z,99973.02
2018-09-25T02:45:47.845Z,99970.91
2018-09-25T02:46:55.636Z,99974.12
2018-09-25T02:48:03.441Z,99977.41
2018-09-25T02:49:11.624Z,99978.83
2018-09-25T02:50:19.781Z,99974.53
2018-09-25T02:51:27.584Z,99978.12
2018-09-25T02:52:35.220Z,99978.42
2018-09-25T02:53:42.841Z,99976.81
2018-09-25T02:54:50.521Z,99983.82
2018-09-25T02:55:58.300Z,99980.84
2018-09-25T02:57:06.487Z,99985.37
2018-09-25T02:58:14.581Z,99982.64
2018-09-25T02:59:22.256Z,99980.58
2018-09-25T03:00:30.041Z,99985.75
2018-09-25T03:01:37.879Z,99982.98
2018-09-25T03:02:46.311Z,99985.80
2018-09-25T03:03:54.433Z,99989.52
2018-09-25T03:05:02.082Z,99994.14
2018-09-25T03:06:09.855Z,99988.57
2018-09-25T03:07:17.518Z,99988.36
2018-09-25T03:08:25.140Z,99988.77
2018-09-25T03:09:34.317Z,99988.91
2018-09-25T03:10:42.081Z,99990.14
2018-09-25T03:11:49.922Z,99986.43
2018-09-25T03:12:57.704Z,99988.23
2018-09-25T03:14:05.895Z,99988.70
2018-09-25T03:15:14.114Z,99991.41
2018-09-25T03:16:22.400Z,99989.92
2018-09-25T03:17:30.452Z,99991.86
2018-09-25T03:18:38.497Z,99991.31
2018-09-25T03:19:47.919Z,99989.97
2018-09-25T03:20:55.843Z,99989.42
2018-09-25T03:22:04.691Z,99988.76
2018-09-25T03:23:12.458Z,99987.30
2018-09-25T03:24:24.255Z,99987.95
2018-09-25T03:25:32.267Z,99987.17
2018-09-25T03:26:40.059Z,99987.47
2018-09-25T03:27:48.296Z,99986.92
2018-09-25T03:28:56.540Z,99985.33
2018-09-25T03:30:04.876Z,99996.61
2018-09-25T03:31:12.639Z,99989.11
2018-09-25T03:32:23.717Z,99998.30
2018-09-25T03:33:31.576Z,99991.22
2018-09-25T03:34:39.572Z,99997.02
2018-09-25T03:35:48.371Z,99987.81
2018-09-25T03:36:56.050Z,99992.51
2018-09-25T03:38:03.672Z,99996.61
2018-09-25T03:39:11.428Z,99994.58
2018-09-25T03:40:19.493Z,100000.75
2018-09-25T03:41:27.440Z,100002.20
2018-09-25T03:42:35.496Z,100000.87
2018-09-25T03:43:43.204Z,99997.41
2018-09-25T03:44:50.901Z,100003.70
2018-09-25T03:45:59.054Z,100004.70
2018-09-25T03:47:06.826Z,100003.91
2018-09-25T03:48:14.944Z,100004.86
2018-09-25T03:49:22.762Z,100007.89
2018-09-25T03:50:30.476Z,99999.52
2018-09-25T03:51:38.315Z,100005.66
2018-09-25T03:52:46.065Z,100007.51
2018-09-25T03:53:53.893Z,99997.27
2018-09-25T03:55:01.678Z,99999.72
2018-09-25T03:56:09.292Z,100004.36
2018-09-25T03:57:17.328Z,100002.02
2018-09-25T03:58:24.983Z,100005.30
2018-09-25T03:59:32.646Z,100008.30
2018-09-25T04:00:41.267Z,100010.94
2018-09-25T04:01:49.332Z,100007.11
2018-09-25T04:02:57.252Z,100008.30
2018-09-25T04:04:05.024Z,100009.95
2018-09-25T04:05:12.804Z,100006.14
2018-09-25T04:06:20.618Z,100004.75
2018-09-25T04:07:28.677Z,100003.64
2018-09-25T04:08:36.465Z,100008.19
2018-09-25T04:09:44.269Z,100005.44
2018-09-25T04:10:52.015Z,100004.69
2018-09-25T04:11:59.783Z,100003.94
2018-09-25T04:13:07.644Z,100008.69
2018-09-25T04:14:15.861Z,100006.60
2018-09-25T04:15:23.613Z,100003.00
2018-09-25T04:16:31.366Z,100006.95
2018-09-25T04:17:39.669Z,100001.11
2018-09-25T04:18:47.464Z,100009.48
2018-09-25T04:19:55.232Z,100003.91
2018-09-25T04:21:03.437Z,100002.34
2018-09-25T04:22:11.231Z,99996.95
2018-09-25T04:23:18.976Z,100005.69
2018-09-25T04:24:26.713Z,99992.27
2018-09-25T04:25:35.404Z,99998.78
2018-09-25T04:26:43.184Z,99998.03
2018-09-25T04:27:51.324Z,100004.17
2018-09-25T04:28:59.093Z,100001.94
2018-09-25T04:30:06.897Z,99997.95
2018-09-25T04:31:14.647Z,100001.84
2018-09-25T04:32:24.042Z,100002.80
2018-09-25T04:33:32.283Z,100005.20
2018-09-25T04:34:41.547Z,100007.12
2018-09-25T04:35:49.183Z,100000.14
2018-09-25T04:36:58.038Z,100011.88
2018-09-25T04:38:06.380Z,100007.79
2018-09-25T04:39:14.236Z,100011.94
2018-09-25T04:40:22.514Z,100002.05
2018-09-25T04:41:30.148Z,100008.84
2018-09-25T04:42:37.925Z,100010.56
2018-09-25T04:43:46.115Z,100005.15
2018-09-25T04:44:54.057Z,100009.34
2018-09-25T04:46:04.283Z,100003.70
2018-09-25T04:47:12.342Z,100004.91
2018-09-25T04:48:20.136Z,100008.00
2018-09-25T04:49:28.854Z,100008.74
2018-09-25T04:50:36.972Z,100013.64
2018-09-25T04:51:44.661Z,100014.68
2018-09-25T04:52:52.591Z,100016.88
2018-09-25T04:54:00.233Z,100006.95
2018-09-25T04:55:07.931Z,100011.78
2018-09-25T04:56:15.872Z,100013.81
2018-09-25T04:57:23.639Z,100006.06
2018-09-25T04:58:31.432Z,100012.98
2018-09-25T04:59:39.989Z,100012.42
2018-09-25T05:00:47.811Z,100013.77
2018-09-25T05:01:56.084Z,100012.51
2018-09-25T05:03:03.827Z,100018.50
2018-09-25T05:04:12.236Z,100018.14
2018-09-25T05:05:20.109Z,100020.72
2018-09-25T05:06:28.731Z,100017.42
2018-09-25T05:07:36.488Z,100026.41
2018-09-25T05:08:44.236Z,100015.45
2018-09-25T05:09:52.210Z,100019.92
2018-09-25T05:10:59.984Z,100024.68
2018-09-25T05:12:07.903Z,100024.80
2018-09-25T05:13:15.983Z,100021.80
2018-09-25T05:14:23.817Z,100028.03
2018-09-25T05:15:31.455Z,100030.76
2018-09-25T05:16:39.224Z,100027.50
2018-09-25T05:17:46.987Z,100029.70
2018-09-25T05:18:54.936Z,100030.00
2018-09-25T05:20:03.346Z,100031.34
2018-09-25T05:21:11.105Z,100036.30
2018-09-25T05:22:18.906Z,100036.20
2018-09-25T05:23:26.777Z,100036.97
2018-09-25T05:24:34.612Z,100041.06
2018-09-25T05:25:42.297Z,100039.41
2018-09-25T05:26:50.376Z,100035.36
2018-09-25T05:27:58.301Z,100038.27
2018-09-25T05:29:06.055Z,100044.51
2018-09-25T05:30:15.272Z,100044.30
2018-09-25T05:31:23.089Z,100041.50
2018-09-25T05:32:31.315Z,100040.72
2018-09-25T05:46:49.774Z,100057.64
2018-09-25T05:47:58.338Z,100058.28
2018-09-25T05:49:06.215Z,100059.33
2018-09-25T05:50:17.407Z,100055.04
2018-09-25T05:51:25.113Z,100059.28
2018-09-25T05:52:33.191Z,100063.77
2018-09-25T05:53:40.982Z,100061.17
2018-09-25T05:54:48.729Z,100058.92
2018-09-25T05:55:57.171Z,100064.63
2018-09-25T05:57:04.992Z,100070.91
2018-09-25T05:58:13.827Z,100065.17
2018-09-25T05:59:22.293Z,100070.02
2018-09-25T06:00:30.047Z,100064.67
2018-09-25T06:01:37.829Z,100063.23
2018-09-25T06:02:45.583Z,100058.14
2018-09-25T06:03:53.319Z,100067.73
2018-09-25T06:05:01.493Z,100064.83
2018-09-25T06:06:09.297Z,100065.38
2018-09-25T06:07:17.065Z,100064.09
2018-09-25T06:08:24.845Z,100061.93
2018-09-25T06:09:32.918Z,100055.33
2018-09-25T06:10:40.682Z,100054.91
2018-09-25T06:11:48.610Z,100055.55
2018-09-25T06:12:56.413Z,100060.83
2018-09-25T06:14:04.240Z,100055.59
2018-09-25T06:15:11.975Z,100057.36
2018-09-25T06:16:19.787Z,100061.02
2018-09-25T06:17:27.524Z,100056.98
2018-09-25T06:18:35.620Z,100062.30
2018-09-25T06:19:43.979Z,100061.80
2018-09-25T06:20:52.404Z,100065.30
2018-09-25T06:22:01.115Z,100062.09
2018-09-25T06:23:09.074Z,100066.65
2018-09-25T06:24:16.856Z,100069.73
2018-09-25T06:25:25.307Z,100067.94
2018-09-25T06:26:33.056Z,100067.98
2018-09-25T06:27:40.820Z,100066.93
2018-09-25T06:28:48.726Z,100065.02
2018-09-25T06:29:57.067Z,100063.69
2018-09-25T06:31:04.777Z,100075.91
2018-09-25T06:32:12.743Z,100073.59
2018-09-25T06:33:20.527Z,100076.75
2018-09-25T06:34:28.454Z,100079.69
2018-09-25T06:35:36.220Z,100079.20
2018-09-25T06:36:43.877Z,100081.26
2018-09-25T06:37:51.497Z,100082.86
2018-09-25T06:39:00.162Z,100081.72
2018-09-25T06:40:07.829Z,100081.61
2018-09-25T06:41:15.527Z,100079.77
2018-09-25T06:42:23.175Z,100081.36
2018-09-25T06:43:30.854Z,100078.51
2018-09-25T06:44:39.531Z,100077.45
2018-09-25T06:45:48.379Z,100082.52
2018-09-25T06:46:56.231Z,100077.55
2018-09-25T06:48:04.516Z,100078.78
2018-09-25T06:49:13.259Z,100074.78
2018-09-25T06:50:20.938Z,100077.86
2018-09-25T06:51:28.905Z,100079.28
2018-09-25T06:52:36.693Z,100076.05
2018-09-25T06:53:44.530Z,100091.55
2018-09-25T06:54:52.213Z,100080.80
2018-09-25T06:56:00.514Z,100083.17
2018-09-25T06:57:09.197Z,100083.84
2018-09-25T06:58:17.294Z,100090.12
2018-09-25T06:59:25.195Z,100091.19
2018-09-25T07:00:32.871Z,100088.47
2018-09-25T07:01:41.511Z,100090.34
2018-09-25T07:02:50.420Z,100088.02
2018-09-25T07:03:58.210Z,100083.09
2018-09-25T07:05:06.052Z,100086.42
2018-09-25T07:06:13.819Z,100080.22
2018-09-25T07:07:21.592Z,100089.13
2018-09-25T07:08:29.806Z,100085.20
2018-09-25T07:09:37.942Z,100090.64
2018-09-25T07:10:45.717Z,100090.77
2018-09-25T07:11:53.318Z,100097.08
2018-09-25T07:13:00.970Z,100102.08
2018-09-25T07:14:08.640Z,100105.14
2018-09-25T07:15:16.279Z,100098.95
2018-09-25T07:16:25.410Z,100102.08
2018-09-25T07:17:33.121Z,100102.08
2018-09-25T07:18:40.878Z,100104.66
2018-09-25T07:19:49.317Z,100112.55
2018-09-25T07:20:57.084Z,100110.73
2018-09-25T07:22:05.199Z,100122.47
2018-09-25T07:23:12.997Z,100110.23
2018-09-25T07:24:20.762Z,100122.30
2018-09-25T07:25:28.515Z,100118.80
2018-09-25T07:26:36.711Z,100124.58
2018-09-25T07:27:44.327Z,100123.53
2018-09-25T07:28:52.495Z,100123.57
2018-09-25T07:30:00.261Z,100123.14
2018-09-25T07:31:08.116Z,100126.06
2018-09-25T07:32:16.350Z,100127.45
2018-09-25T07:33:24.023Z,100134.47
2018-09-25T07:34:31.659Z,100126.91
2018-09-25T07:35:41.562Z,100131.92
2018-09-25T07:36:49.230Z,100138.17
2018-09-25T07:37:57.880Z,100141.98
2018-09-25T07:39:05.493Z,100140.16
2018-09-25T07:40:13.294Z,100142.23
2018-09-25T07:41:21.352Z,100141.77
2018-09-25T07:42:29.425Z,100135.14
2018-09-25T07:43:37.204Z,100137.03
2018-09-25T07:44:45.025Z,100141.30
2018-09-25T07:45:52.677Z,100142.44
2018-09-25T07:47:02.202Z,100145.22
2018-09-25T07:48:11.085Z,100153.58
2018-09-25T07:49:18.738Z,100142.26
2018-09-25T07:50:26.477Z,100154.53
2018-09-25T07:51:34.121Z,100151.55
2018-09-25T07:52:42.621Z,100147.73
2018-09-25T07:53:50.275Z,100146.22
2018-09-25T07:54:58.265Z,100152.56
2018-09-25T07:56:06.054Z,100160.20
2018-09-25T07:57:13.824Z,100161.20
2018-09-25T07:58:21.725Z,100158.60
2018-09-25T07:59:30.472Z,100162.24
2018-09-25T08:00:38.223Z,100163.47
2018-09-25T08:01:46.660Z,100157.98
2018-09-25T08:02:54.335Z,100160.77
2018-09-25T08:04:02.001Z,100153.89
2018-09-25T08:05:09.629Z,100164.70
2018-09-25T08:06:17.430Z,100159.86
2018-09-25T08:07:26.052Z,100156.94
2018-09-25T08:08:33.840Z,100157.75
2018-09-25T08:09:41.649Z,100157.75
2018-09-25T08:10:49.459Z,100156.84
2018-09-25T08:11:57.284Z,100161.85
2018-09-25T08:13:05.144Z,100164.20
2018-09-25T08:14:13.245Z,100156.70
2018-09-25T08:15:21.565Z,100165.00
2018-09-25T08:16:29.319Z,100163.09
2018-09-25T08:17:37.176Z,100162.97
2018-09-25T08:18:45.781Z,100165.20
2018-09-25T08:19:54.743Z,100156.08
2018-09-25T08:21:05.573Z,100161.53
2018-09-25T08:22:13.416Z,100164.85
2018-09-25T08:23:21.581Z,100166.69
2018-09-25T08:24:29.349Z,100165.55
2018-09-25T08:25:37.105Z,100172.53
2018-09-25T08:26:45.183Z,100174.02
2018-09-25T08:27:52.985Z,100172.20
2018-09-25T08:29:00.816Z,100171.68
2018-09-25T08:30:08.570Z,100166.27
2018-09-25T08:31:17.105Z,100170.36
2018-09-25T08:32:24.755Z,100172.75
2018-09-25T08:33:32.718Z,100172.10
2018-09-25T08:34:40.837Z,100168.94
2018-09-25T08:35:48.469Z,100177.44
2018-09-25T08:36:56.468Z,100171.25
2018-09-25T08:38:04.111Z,100173.87
2018-09-25T08:39:12.469Z,100172.48
2018-09-25T08:40:20.493Z,100176.13
2018-09-25T08:41:28.136Z,100171.09
2018-09-25T08:42:35.934Z,100174.91
2018-09-25T08:43:44.152Z,100177.34
2018-09-25T08:44:53.033Z,100178.11
2018-09-25T08:46:00.811Z,100184.58
2018-09-25T08:47:09.473Z,100183.00
2018-09-25T08:48:17.277Z,100172.29
2018-09-25T08:49:26.058Z,100179.37
2018-09-25T08:50:33.828Z,100182.06
2018-09-25T08:51:41.609Z,100183.58
2018-09-25T08:52:49.410Z,100187.70
2018-09-25T08:53:57.235Z,100184.66
2018-09-25T08:55:06.019Z,100176.73
2018-09-25T08:56:14.105Z,100186.55
2018-09-25T08:57:21.846Z,100186.37
2018-09-25T08:58:30.487Z,100188.85
2018-09-25T08:59:38.155Z,100179.14
2018-09-25T09:00:46.093Z,100176.67
2018-09-25T09:01:54.360Z,100180.31
2018-09-25T09:03:02.155Z,100181.52
2018-09-25T09:04:09.958Z,100176.50
2018-09-25T09:05:17.731Z,100186.98
2018-09-25T09:06:26.282Z,100183.07
2018-09-25T09:07:34.045Z,100177.63
2018-09-25T09:08:42.296Z,100180.94
2018-09-25T09:09:49.946Z,100177.47
2018-09-25T09:10:57.562Z,100181.27
2018-09-25T09:12:05.327Z,100188.91
2018-09-25T09:13:13.169Z,100180.87
2018-09-25T09:14:20.843Z,100183.98
2018-09-25T09:15:28.780Z,100182.55
2018-09-25T09:16:36.541Z,100183.77
2018-09-25T09:17:44.311Z,100179.27
2018-09-25T09:18:52.069Z,100176.51
2018-09-25T09:19:59.872Z,100184.69
2018-09-25T09:21:07.541Z,100180.84
2018-09-25T09:22:15.489Z,100182.42
2018-09-25T09:23:23.163Z,100186.16
2018-09-25T09:24:31.430Z,100193.26
2018-09-25T09:25:40.125Z,100186.63
2018-09-25T09:26:48.442Z,100195.42
2018-09-25T09:27:56.522Z,100185.19
2018-09-25T09:29:04.258Z,100184.21
2018-09-25T09:30:13.089Z,100185.82
2018-09-25T09:31:22.533Z,100177.01
2018-09-25T09:32:30.353Z,100176.10
2018-09-25T09:33:38.119Z,100173.75
2018-09-25T09:34:46.171Z,100172.09
2018-09-25T09:35:54.527Z,100178.71
2018-09-25T09:37:02.301Z,100169.20
2018-09-25T09:39:22.573Z,100163.34
2018-09-25T09:40:30.323Z,100171.36
2018-09-25T09:41:38.686Z,100171.23
2018-09-25T09:42:46.276Z,100176.63
2018-09-25T09:43:54.064Z,100165.44
2018-09-25T09:45:02.503Z,100157.05
2018-09-25T09:46:10.765Z,100161.76
2018-09-25T09:47:18.713Z,100159.89
2018-09-25T09:48:26.644Z,100156.86
2018-09-25T09:49:34.591Z,100162.17
2018-09-25T09:50:42.204Z,100170.00
2018-09-25T09:51:50.457Z,100163.29
2018-09-25T09:52:58.080Z,100172.81
2018-09-25T09:54:05.767Z,100166.03
2018-09-25T09:55:14.299Z,100163.68
2018-09-25T09:56:21.997Z,100161.37
2018-09-25T09:57:32.024Z,100153.48
2018-09-25T09:58:40.347Z,100157.91
2018-09-25T09:59:48.623Z,100153.31
2018-09-25T10:00:56.369Z,100153.80
2018-09-25T10:02:04.459Z,100155.94
2018-09-25T10:03:12.763Z,100149.78
2018-09-25T10:04:20.409Z,100148.00
2018-09-25T10:05:28.292Z,100149.09
2018-09-25T10:06:36.262Z,100149.59
2018-09-25T10:07:44.581Z,100143.25
2018-09-25T10:08:53.551Z,100146.27
2018-09-25T10:10:01.797Z,100153.47
2018-09-25T10:11:10.378Z,100152.78
2018-09-25T10:12:18.092Z,100147.39
2018-09-25T10:13:25.774Z,100145.52
2018-09-25T10:14:34.420Z,100137.87
2018-09-25T10:15:42.076Z,100138.84
2018-09-25T10:16:49.893Z,100138.27
2018-09-25T10:17:57.685Z,100131.03
2018-09-25T10:20:29.751Z,100142.47
2018-09-25T10:21:37.691Z,100141.83
2018-09-25T10:22:45.339Z,100138.25
2018-09-25T10:23:52.958Z,100139.52
2018-09-25T10:25:01.592Z,100138.64
2018-09-25T10:26:09.447Z,100134.35
2018-09-25T10:27:17.758Z,100128.40
2018-09-25T10:28:25.424Z,100126.98
2018-09-25T10:29:33.383Z,100133.36
2018-09-25T10:30:41.343Z,100128.41
2018-09-25T10:31:51.386Z,100122.52
2018-09-25T10:46:00.810Z,100128.67
2018-09-25T10:47:12.406Z,100130.59
2018-09-25T10:48:20.618Z,100127.86
2018-09-25T10:49:28.436Z,100127.89
2018-09-25T10:50:36.541Z,100130.66
2018-09-25T10:51:45.330Z,100130.31
2018-09-25T10:52:57.250Z,100128.91
2018-09-25T10:54:05.744Z,100131.33
2018-09-25T10:55:13.540Z,100122.91
2018-09-25T10:56:27.320Z,100119.88
2018-09-25T10:57:36.237Z,100124.20
2018-09-25T10:58:44.475Z,100121.48
2018-09-25T10:59:52.123Z,100120.81
2018-09-25T11:01:01.148Z,100118.94
2018-09-25T11:02:10.555Z,100121.63
2018-09-25T11:03:18.433Z,100119.59
2018-09-25T11:04:26.454Z,100116.79
2018-09-25T11:05:34.108Z,100114.72
2018-09-25T11:06:41.747Z,100109.97
2018-09-25T11:07:49.517Z,100116.44
2018-09-25T11:08:57.347Z,100117.45
2018-09-25T11:10:06.283Z,100119.66
2018-09-25T11:11:15.091Z,100117.16
2018-09-25T11:12:22.859Z,100117.86
2018-09-25T11:13:30.843Z,100123.95
2018-09-25T11:14:39.189Z,100117.84
2018-09-25T11:15:46.932Z,100122.93
2018-09-25T11:16:56.068Z,100121.27
2018-09-25T11:18:03.888Z,100127.30
2018-09-25T11:19:12.358Z,100129.38
2018-09-25T11:20:19.990Z,100128.33
2018-09-25T11:21:28.225Z,100123.19
2018-09-25T11:22:36.476Z,100122.47
2018-09-25T11:23:45.027Z,100124.23
2018-09-25T11:24:52.810Z,100117.95
2018-09-25T11:26:00.648Z,100114.08
2018-09-25T11:27:08.470Z,100118.08
2018-09-25T11:28:16.580Z,100125.84
2018-09-25T11:29:24.386Z,100120.64
2018-09-25T11:30:32.186Z,100130.55
2018-09-25T11:31:40.227Z,100124.31
2018-09-25T11:32:47.982Z,100120.02
2018-09-25T11:33:56.696Z,100116.03
2018-09-25T11:35:04.521Z,100110.67
2018-09-25T11:36:12.219Z,100109.33
2018-09-25T11:37:19.870Z,100119.20
2018-09-25T11:38:27.543Z,100117.17
2018-09-25T11:39:35.651Z,100120.34
2018-09-25T11:40:43.605Z,100114.23
2018-09-25T11:41:51.261Z,100112.67
2018-09-25T11:42:59.545Z,100113.69
2018-09-25T11:44:07.305Z,100112.23
2018-09-25T11:45:16.081Z,100117.81
2018-09-25T11:46:24.895Z,100126.25
2018-09-25T11:47:32.558Z,100122.64
2018-09-25T11:48:40.364Z,100133.72
2018-09-25T11:49:48.337Z,100126.74
2018-09-25T11:50:56.135Z,100124.12
2018-09-25T11:52:05.660Z,100122.05
2018-09-25T11:53:15.687Z,100120.91
2018-09-25T11:54:25.123Z,100123.44
2018-09-25T11:55:33.471Z,100119.94
2018-09-25T11:56:41.121Z,100114.06
2018-09-25T11:57:48.792Z,100112.41
2018-09-25T11:58:57.806Z,100118.78
2018-09-25T12:00:05.601Z,100115.79
2018-09-25T12:01:14.320Z,100116.29
2018-09-25T12:02:22.011Z,100118.89
2018-09-25T12:03:29.850Z,100129.58
2018-09-25T12:04:38.354Z,100120.75
2018-09-25T12:05:46.523Z,100127.64
2018-09-25T12:06:54.381Z,100118.55
2018-09-25T12:08:03.790Z,100113.02
2018-09-25T12:09:11.559Z,100111.53
2018-09-25T12:10:19.367Z,100105.50
2018-09-25T12:11:27.628Z,100107.45
2018-09-25T12:12:35.439Z,100110.39
2018-09-25T12:13:43.230Z,100106.66
2018-09-25T12:14:51.159Z,100101.86
2018-09-25T12:15:58.947Z,100112.98
2018-09-25T12:17:06.693Z,100109.70
2018-09-25T12:18:15.432Z,100106.62
2018-09-25T12:19:25.127Z,100100.84
2018-09-25T12:20:32.883Z,100095.52
2018-09-25T12:21:40.709Z,100088.11
2018-09-25T12:22:48.367Z,100085.92
2018-09-25T12:23:57.283Z,100084.08
2018-09-25T12:25:05.334Z,100084.75
2018-09-25T12:26:13.809Z,100080.22
2018-09-25T12:27:21.745Z,100079.17
2018-09-25T12:28:29.539Z,100077.28
2018-09-25T12:30:46.631Z,100080.09
2018-09-25T12:31:55.405Z,100084.77
2018-09-25T12:33:03.269Z,100075.34
2018-09-25T12:34:11.010Z,100088.14
2018-09-25T12:35:20.465Z,100085.72
2018-09-25T12:36:29.289Z,100091.55
2018-09-25T12:37:37.377Z,100091.16
2018-09-25T12:38:45.138Z,100100.98
2018-09-25T12:39:53.349Z,100100.20
2018-09-25T12:41:02.009Z,100112.05
2018-09-25T12:42:10.837Z,100115.37
2018-09-25T12:43:18.516Z,100114.67
2018-09-25T12:44:27.932Z,100115.33
2018-09-25T12:45:36.402Z,100110.75
2018-09-25T12:46:46.363Z,100108.64
2018-09-25T12:47:54.192Z,100105.97
2018-09-25T12:49:03.541Z,100100.69
2018-09-25T12:50:11.427Z,100100.05
2018-09-25T12:51:19.570Z,100080.05
2018-09-25T12:52:27.451Z,100079.95
2018-09-25T12:53:35.241Z,100088.17
2018-09-25T12:54:43.039Z,100083.20
2018-09-25T12:55:51.269Z,100091.23
2018-09-25T12:56:58.907Z,100097.63
2018-09-25T12:58:06.735Z,100094.28
2018-09-25T12:59:17.488Z,100087.85
2018-09-25T13:00:25.652Z,100084.47
2018-09-25T13:01:35.237Z,100086.67
2018-09-25T13:02:43.251Z,100086.98
2018-09-25T13:03:51.693Z,100085.80
2018-09-25T13:04:59.511Z,100085.31
2018-09-25T13:06:07.363Z,100094.72
2018-09-25T13:07:15.329Z,100093.86
2018-09-25T13:08:23.450Z,100083.06
2018-09-25T13:09:31.443Z,100087.59
2018-09-25T13:10:39.216Z,100079.95
2018-09-25T13:11:47.240Z,100083.47
2018-09-25T13:12:55.086Z,100076.00
2018-09-25T13:14:03.970Z,100080.87
2018-09-25T13:15:12.940Z,100078.31
2018-09-25T13:16:20.720Z,100079.15
2018-09-25T13:17:28.609Z,100079.81
2018-09-25T13:18:36.511Z,100073.30
2018-09-25T13:19:44.469Z,100073.51
2018-09-25T13:20:53.282Z,100074.16
2018-09-25T13:22:01.422Z,100076.44
2018-09-25T13:23:11.047Z,100076.40
2018-09-25T13:24:19.094Z,100075.52
2018-09-25T13:25:27.251Z,100075.13
2018-09-25T13:26:35.016Z,100068.04
2018-09-25T13:28:59.262Z,100050.20
2018-09-25T13:30:07.378Z,100041.55
2018-09-25T13:31:15.981Z,100048.13
2018-09-25T13:32:23.933Z,100043.89
2018-09-25T13:33:31.703Z,100041.87
2018-09-25T13:34:40.521Z,100043.90
2018-09-25T13:35:48.259Z,100039.69